Details From SMJP - Paramaribo Johan A Pengel Intl
To TNCM - St Maarten - Princess Juliana Intl
Flight Number -
Tags decoded
Created
Modified
Stats Distance 887 nm / 1,643 km
Max Altitude 0 ft / 0 m
Waypoints 2
Social Downloads 0
Likes 0
Share VATSIM

Download

Looking for another format? Having issues loading an existing format? Contact us
Advertisement - Login to hide

Notes

Requested: SMJP TNCM

Route

SMJP TNCM

ID Type Via Altitude (ft/m) Position (lat/lon) Dist (leg/tot) Name
O SMJP APT - 0 / 0 5.45283 / -55.18778 - / 0 nm Paramaribo Johan A Pengel Intl
O TNCM APT - 0 / 0 18.04089 / -63.10897 887 / 887 nm St Maarten - Princess Juliana Intl

Altitude Profile

Advertisement - Login to hide

Weather


0- 5 10 15 20 25 30 35+ Temperature / °C

Clouds and Precipitation
Forecast for 2018-10-17 06:00 UTC. Updated 5 hours ago

Ground ~20,000 ft ~40,000 ft Winds

SMJP

Details ICAO SMJP (PBM)
Name Paramaribo Johan Adolf Pengel Intl
Region Suriname
Timezone America/Paramaribo (UTC-3.0)
Stats Elevation 59 ft / 18 m (AMSL)
Location 5.452850° -55.187800°
Runways 1
Magnetic Variation 17.580° W

METAR

SMJP 170800Z 14003KT CAVOK 23/23 Q1009 NOSIG

Decode

TAF

Not found

Departure Runways

ID Width Length Bearing (true/mag) Surface Threshold Overrun Markings Lighting
11 149 ft / 46 m 12,390 ft / 3,777 m 89.68° / 107.26° ASPHALT 476 ft / 145 m 0 ft / 0 m APP CENTERLINE EDGE THRESHOLD MALSF
29 149 ft / 46 m 12,390 ft / 3,777 m 269.69° / 287.27° ASPHALT 499 ft / 152 m 0 ft / 0 m APP CENTERLINE EDGE THRESHOLD MALSF

TNCM

Details ICAO TNCM (SXM)
Name Princess Juliana Int'l
Region Caribbean Netherlands, Aruba, Curaçao, Sint Maarten
Timezone Unknown
Stats Elevation 12 ft / 4 m (AMSL)
Location 18.040900° -63.108900°
Runways 1
Magnetic Variation 14.348° W

METAR

TNCM 170800Z 09014KT 050V140 9999 SCT018 28/23 Q1013 A2991

Decode

TAF

TAF TNCM 170536Z 1706/1806 08014KT P6SM VCSH FEW018 SCT045 FM171200 10016KT P6SM VCTS SCT018CB BKN040 FM172200 09012KT P6SM VCSH SCT020 SCT050

Decode

Destination Runways

ID Width Length Bearing (true/mag) Surface Threshold Overrun Markings Lighting
10 148 ft / 45 m 7,553 ft / 2,302 m 81.44° / 95.79° ASPHALT 331 ft / 101 m 164 ft / 50 m PREC-APP EDGE THRESHOLD REIL-OMNI
28 148 ft / 45 m 7,553 ft / 2,302 m 261.45° / 275.79° ASPHALT 0 ft / 0 m 200 ft / 61 m APP EDGE THRESHOLD

Popular Alternatives